Time;durP1;ratioP1;P1;durP2;ratioP2;P2;SDS_P1;SDS_P2;PMS_P1;PMS_P2;Temp;Humidity;BMP_temperature;BMP_pressure;BME280_temperature;BME280_humidity;BME280_pressure;Samples;Min_cycle;Max_cycle;Signal;HPM_P1;HPM_P2
2022/06/22 00:04:57;;;;;;;14.27;9.50;;;;;;;11.86;100.00;101414.84;10300145;28;20066;-80
2022/06/22 00:10:19;;;;;;;23.38;11.82;;;;;;;11.75;100.00;101413.84;10302500;28;20045;-79
2022/06/22 00:15:42;;;;;;;27.13;19.40;;;;;;;11.66;100.00;101426.38;10319580;28;20077;-79
2022/06/22 00:20:48;;;;;;;29.63;18.50;;;;;;;11.58;100.00;101418.50;10316734;28;20047;-79
2022/06/22 00:25:49;;;;;;;24.13;15.57;;;;;;;11.41;100.00;101411.03;10231535;28;20043;-80
2022/06/22 00:30:49;;;;;;;21.77;13.70;;;;;;;11.41;100.00;101422.06;10292514;28;20053;-80
2022/06/22 00:35:51;;;;;;;16.65;11.77;;;;;;;11.37;100.00;101422.78;10276768;28;20041;-79
2022/06/22 00:40:54;;;;;;;20.30;11.82;;;;;;;11.23;100.00;101422.25;10276266;28;20049;-80
2022/06/22 00:45:55;;;;;;;15.48;12.23;;;;;;;11.18;100.00;101430.41;10260830;28;20039;-79
2022/06/22 00:50:59;;;;;;;17.90;13.82;;;;;;;11.06;100.00;101423.03;10256881;28;20066;-79
2022/06/22 00:56:04;;;;;;;20.50;13.68;;;;;;;10.96;100.00;101421.97;10277533;28;20035;-79
2022/06/22 01:01:28;;;;;;;21.20;14.43;;;;;;;11.01;100.00;101420.16;10289604;28;20054;-79
2022/06/22 01:06:49;;;;;;;15.93;12.90;;;;;;;10.95;100.00;101399.09;10286996;28;20051;-79
2022/06/22 01:12:17;;;;;;;15.48;11.45;;;;;;;10.70;100.00;101374.59;10291380;28;20568;-79
2022/06/22 01:17:23;;;;;;;17.77;12.90;;;;;;;10.61;100.00;101385.16;10290616;28;20117;-79
2022/06/22 01:22:48;;;;;;;18.15;12.35;;;;;;;10.32;100.00;101342.13;10231893;28;20058;-79
2022/06/22 01:27:49;;;;;;;16.38;11.68;;;;;;;10.41;100.00;101368.19;10275173;28;20082;-82
2022/06/22 01:32:49;;;;;;;17.15;12.38;;;;;;;10.45;100.00;101391.41;10274391;28;20174;-79
2022/06/22 01:37:50;;;;;;;17.35;12.20;;;;;;;10.32;100.00;101399.94;10259770;28;20063;-80
2022/06/22 01:42:55;;;;;;;16.73;11.18;;;;;;;10.38;100.00;101407.22;10275500;28;20047;-80
2022/06/22 01:48:01;;;;;;;24.10;13.20;;;;;;;10.34;100.00;101409.63;10260154;28;20039;-79
2022/06/22 01:53:04;;;;;;;21.38;13.70;;;;;;;10.42;100.00;101412.00;10243732;28;20035;-80
2022/06/22 01:58:04;;;;;;;23.65;13.93;;;;;;;10.39;100.00;101415.22;10293846;28;20081;-79
2022/06/22 02:03:18;;;;;;;22.05;13.77;;;;;;;10.34;100.00;101414.28;10292717;28;20042;-80
2022/06/22 02:08:45;;;;;;;26.13;14.63;;;;;;;10.24;100.00;101421.19;10262175;28;20047;-79
2022/06/22 02:14:03;;;;;;;23.20;13.00;;;;;;;10.20;100.00;101419.97;10256217;28;20419;-80
2022/06/22 02:19:03;;;;;;;19.58;12.23;;;;;;;10.09;100.00;101407.06;10251270;28;20048;-80
2022/06/22 02:24:08;;;;;;;16.25;12.48;;;;;;;9.98;100.00;101422.47;10275414;28;20043;-79
2022/06/22 02:29:08;;;;;;;18.23;11.88;;;;;;;9.81;100.00;101410.47;10262519;28;20039;-80
2022/06/22 02:34:09;;;;;;;16.88;11.88;;;;;;;9.81;100.00;101414.06;10266699;28;20442;-79
2022/06/22 02:39:11;;;;;;;18.35;12.43;;;;;;;9.81;100.00;101407.72;10282650;28;20035;-80
2022/06/22 02:44:30;;;;;;;21.58;12.90;;;;;;;9.70;100.00;101398.38;10265699;28;20031;-79
2022/06/22 02:49:32;;;;;;;15.90;11.57;;;;;;;9.62;100.00;101401.47;10282503;28;20047;-79
2022/06/22 02:54:36;;;;;;;16.23;11.63;;;;;;;9.69;100.00;101410.44;10265215;28;20543;-80
2022/06/22 02:59:36;;;;;;;15.60;10.45;;;;;;;9.27;100.00;101358.22;10264038;28;20045;-79
2022/06/22 03:04:38;;;;;;;18.00;11.63;;;;;;;9.59;100.00;101434.91;10281339;28;20031;-80
2022/06/22 03:09:39;;;;;;;18.52;12.40;;;;;;;9.52;100.00;101412.19;10280890;28;20066;-80
2022/06/22 03:15:01;;;;;;;18.45;12.07;;;;;;;9.49;100.00;101428.09;10280159;28;20046;-79
2022/06/22 03:20:06;;;;;;;17.45;11.65;;;;;;;9.47;100.00;101410.16;10278581;28;20484;-80
2022/06/22 03:25:22;;;;;;;20.92;11.75;;;;;;;9.47;100.00;101432.16;10263978;28;20446;-79
2022/06/22 03:30:25;;;;;;;20.25;12.65;;;;;;;9.41;100.00;101422.09;10208967;28;20078;-79
2022/06/22 03:35:50;;;;;;;18.27;12.82;;;;;;;9.25;100.00;101390.59;10238082;28;20125;-80
2022/06/22 03:41:03;;;;;;;19.92;12.15;;;;;;;9.45;100.00;101435.13;10241457;28;20049;-81
2022/06/22 03:46:41;;;;;;;17.02;11.32;;;;;;;9.41;100.00;101442.16;10244313;28;20047;-79
2022/06/22 03:51:50;;;;;;;12.32;9.82;;;;;;;9.28;100.00;101420.34;10279571;28;20046;-80
2022/06/22 03:56:54;;;;;;;11.02;8.00;;;;;;;9.28;100.00;101412.09;10278658;28;20043;-80
2022/06/22 04:01:55;;;;;;;12.60;8.07;;;;;;;9.38;100.00;101434.38;10279452;28;20062;-78
2022/06/22 04:06:56;;;;;;;11.38;8.30;;;;;;;9.40;100.00;101421.22;10262121;28;20039;-80
2022/06/22 04:12:01;;;;;;;12.43;9.07;;;;;;;9.43;100.00;101409.78;10244585;28;20051;-79
2022/06/22 04:17:05;;;;;;;13.80;10.87;;;;;;;9.57;100.00;101412.31;10280486;28;20035;-80
2022/06/22 04:22:17;;;;;;;24.50;13.60;;;;;;;9.67;100.00;101393.34;10262145;28;20081;-79
2022/06/22 04:27:20;;;;;;;24.67;15.23;;;;;;;9.84;100.00;101390.78;10278155;28;20034;-80
2022/06/22 04:32:28;;;;;;;27.95;16.50;;;;;;;10.03;100.00;101380.50;10292311;28;20062;-80
2022/06/22 04:37:34;;;;;;;27.88;18.05;;;;;;;10.08;100.00;101356.69;10260500;28;20046;-79
2022/06/22 04:42:35;;;;;;;28.25;18.10;;;;;;;10.35;100.00;101361.72;10277734;28;20035;-79
2022/06/22 04:47:35;;;;;;;29.10;17.65;;;;;;;10.61;100.00;101378.81;10260339;28;20049;-80
2022/06/22 04:52:41;;;;;;;32.25;19.40;;;;;;;10.40;100.00;101317.00;10276323;28;20038;-79
2022/06/22 04:57:41;;;;;;;30.73;17.83;;;;;;;10.80;100.00;101357.47;10292501;28;20038;-80
2022/06/22 05:02:43;;;;;;;35.10;19.75;;;;;;;11.07;100.00;101375.09;10263603;28;20104;-80
2022/06/22 05:08:14;;;;;;;31.95;19.52;;;;;;;11.31;100.00;101380.50;10252020;28;20043;-81
2022/06/22 05:13:17;;;;;;;30.17;19.08;;;;;;;11.51;100.00;101363.50;10276314;28;20043;-81
2022/06/22 05:18:24;;;;;;;41.72;21.80;;;;;;;11.65;100.00;101369.53;10259138;28;20513;-80
2022/06/22 05:23:25;;;;;;;36.33;22.88;;;;;;;11.83;100.00;101361.00;10259611;28;20042;-80
2022/06/22 05:28:39;;;;;;;43.40;31.13;;;;;;;11.90;100.00;101349.84;10274532;28;20039;-81
2022/06/22 05:33:42;;;;;;;46.63;34.72;;;;;;;12.35;100.00;101394.97;10242032;28;20054;-80
2022/06/22 05:38:45;;;;;;;41.90;29.67;;;;;;;12.40;100.00;101381.22;10259568;28;20039;-81
2022/06/22 05:43:45;;;;;;;31.10;24.67;;;;;;;12.52;100.00;101388.31;10288677;28;20094;-80
2022/06/22 05:48:47;;;;;;;28.70;20.33;;;;;;;12.93;100.00;101421.19;10242076;28;20046;-80
2022/06/22 05:53:47;;;;;;;20.27;16.23;;;;;;;13.18;100.00;101425.34;10275274;28;20054;-80
2022/06/22 05:59:07;;;;;;;23.92;15.90;;;;;;;13.50;100.00;101415.25;10292167;28;20058;-80
2022/06/22 06:04:48;;;;;;;21.98;13.20;;;;;;;13.93;100.00;101416.22;10280765;28;20047;-80
2022/06/22 06:09:49;;;;;;;20.55;8.90;;;;;;;14.40;100.00;101409.06;10197904;29;20060;-81
2022/06/22 06:14:50;;;;;;;14.18;8.50;;;;;;;14.80;100.00;101395.72;10224872;28;20047;-80
2022/06/22 06:19:51;;;;;;;14.07;5.95;;;;;;;15.19;100.00;101381.47;10225389;28;20084;-78
2022/06/22 06:30:18;;;;;;;9.20;4.43;;;;;;;15.99;100.00;101398.53;10242538;28;20455;-80
2022/06/22 06:35:28;;;;;;;8.88;3.67;;;;;;;16.06;100.00;101373.25;10242813;28;20090;-80
2022/06/22 06:41:09;;;;;;;8.13;3.78;;;;;;;16.48;100.00;101388.75;10242409;28;20027;-80
2022/06/22 06:46:25;;;;;;;6.80;3.10;;;;;;;16.82;100.00;101391.72;10227656;28;20094;-79
2022/06/22 06:51:26;;;;;;;6.13;3.17;;;;;;;17.05;100.00;101386.63;10227024;28;20043;-80
2022/06/22 06:56:39;;;;;;;6.22;3.38;;;;;;;17.20;100.00;101385.72;10226141;28;20046;-81
2022/06/22 07:01:39;;;;;;;11.68;3.70;;;;;;;17.42;100.00;101394.50;10242886;28;20035;-80
2022/06/22 07:06:40;;;;;;;7.28;2.65;;;;;;;17.29;100.00;101334.75;10235668;28;20035;-81
2022/06/22 07:11:44;;;;;;;7.40;2.63;;;;;;;17.95;100.00;101391.91;10278849;28;20039;-81
2022/06/22 07:16:46;;;;;;;6.95;2.92;;;;;;;18.15;100.00;101401.22;10259388;28;20537;-81
2022/06/22 07:22:15;;;;;;;7.03;3.42;;;;;;;18.47;100.00;101408.16;10239039;28;20411;-81
2022/06/22 07:27:34;;;;;;;10.88;4.20;;;;;;;18.64;100.00;101402.94;10258773;28;20031;-81
2022/06/22 07:32:46;;;;;;;7.63;3.95;;;;;;;18.82;100.00;101408.94;10259984;28;20510;-81
2022/06/22 07:38:14;;;;;;;8.35;3.53;;;;;;;19.14;100.00;101408.22;10258227;28;20054;-80
2022/06/22 07:43:14;;;;;;;11.10;4.55;;;;;;;19.38;100.00;101394.22;10265898;28;20838;-81
2022/06/22 07:48:17;;;;;;;10.43;3.78;;;;;;;19.37;100.00;101384.22;10240483;28;20039;-82
2022/06/22 07:53:46;;;;;;;12.60;3.75;;;;;;;19.62;100.00;101404.50;10269313;28;20042;-82
2022/06/22 07:58:48;;;;;;;11.38;4.00;;;;;;;19.70;97.85;101378.66;10278714;28;20138;-82
2022/06/22 08:04:16;;;;;;;9.70;4.25;;;;;;;19.83;96.64;101397.50;10262057;28;20047;-82
2022/06/22 08:09:34;;;;;;;10.52;4.00;;;;;;;19.85;96.10;101405.56;10254819;28;20077;-81
2022/06/22 08:14:43;;;;;;;7.32;3.55;;;;;;;20.00;94.37;101382.13;10244980;28;20058;-81
2022/06/22 08:19:43;;;;;;;7.15;4.20;;;;;;;20.39;92.59;101409.66;10241122;28;20111;-82
2022/06/22 08:24:48;;;;;;;8.27;3.33;;;;;;;20.21;90.67;101394.59;10254231;28;20031;-82
2022/06/22 08:29:49;;;;;;;9.23;3.13;;;;;;;20.26;86.93;101386.13;10238771;28;20445;-81
2022/06/22 08:34:55;;;;;;;9.82;3.83;;;;;;;20.20;86.84;101387.38;10222390;28;20043;-81
2022/06/22 08:40:32;;;;;;;7.28;4.40;;;;;;;20.10;87.52;101393.13;10258236;28;20035;-81
2022/06/22 08:46:00;;;;;;;10.40;4.70;;;;;;;20.45;90.32;101410.41;10261454;28;20039;-81
2022/06/22 08:51:22;;;;;;;12.05;5.00;;;;;;;20.70;89.89;101404.34;10273094;28;20043;-81
2022/06/22 08:56:38;;;;;;;7.85;5.32;;;;;;;20.71;88.32;101394.81;10274849;28;20139;-81
2022/06/22 09:02:06;;;;;;;13.30;5.50;;;;;;;20.64;89.06;101391.59;10272293;28;20043;-82
2022/06/22 09:07:17;;;;;;;8.65;6.00;;;;;;;20.62;89.06;101381.84;10273377;28;20073;-81
2022/06/22 09:12:46;;;;;;;10.85;6.35;;;;;;;20.91;87.46;101389.94;10256338;28;20039;-81
2022/06/22 09:17:49;;;;;;;11.45;7.80;;;;;;;21.13;86.74;101394.78;10252779;28;20070;-82
2022/06/22 09:22:57;;;;;;;16.52;7.55;;;;;;;21.24;86.88;101390.63;10291829;28;20135;-81
2022/06/22 09:28:03;;;;;;;14.57;7.57;;;;;;;21.51;85.33;101386.13;10276588;28;20031;-81
2022/06/22 09:33:40;;;;;;;13.98;7.78;;;;;;;21.32;83.83;101355.44;10276152;28;20034;-81
2022/06/22 09:39:19;;;;;;;16.58;7.57;;;;;;;21.78;81.77;101402.00;10290129;28;20102;-82
2022/06/22 09:44:37;;;;;;;15.35;7.43;;;;;;;22.06;81.28;101407.50;10280219;28;20090;-81
2022/06/22 09:50:06;;;;;;;14.07;6.90;;;;;;;21.74;83.35;101401.81;10291301;28;20043;-81
2022/06/22 10:01:11;;;;;;;7.05;4.18;;;;;;;22.71;76.90;101363.97;10292748;28;20421;-82
2022/06/22 10:06:18;;;;;;;;;;;;;;;23.37;75.27;101383.63;10258143;28;20054;-82
2022/06/22 10:11:48;;;;;;;8.10;3.70;;;;;;;23.53;74.59;101389.59;10298466;28;20324;-80
2022/06/22 10:16:51;;;;;;;12.82;4.88;;;;;;;23.48;71.78;101382.16;10247950;28;20044;-80
2022/06/22 10:22:22;;;;;;;6.50;3.70;;;;;;;23.45;73.56;101377.19;10280383;28;20047;-81
2022/06/22 10:27:26;;;;;;;10.05;4.82;;;;;;;23.53;70.72;101370.75;10261421;28;20094;-81
2022/06/22 10:32:39;;;;;;;8.85;4.90;;;;;;;23.35;70.98;101347.41;10276001;28;20455;-81
2022/06/22 10:38:12;;;;;;;9.13;4.25;;;;;;;23.40;70.86;101366.13;10263876;28;20039;-81
2022/06/22 10:48:48;;;;;;;10.65;4.45;;;;;;;24.06;67.35;101359.47;10275357;28;20383;-82
2022/06/22 10:53:57;;;;;;;8.20;3.40;;;;;;;24.05;70.03;101374.69;10284472;28;20039;-81
2022/06/22 10:59:00;;;;;;;10.50;3.60;;;;;;;23.94;67.66;101363.78;10268209;28;20047;-80
2022/06/22 11:04:19;;;;;;;7.80;3.92;;;;;;;24.26;64.60;101353.13;10273411;28;20103;-82
2022/06/22 11:09:41;;;;;;;7.68;3.40;;;;;;;24.69;64.63;101348.50;10292956;28;20053;-80
2022/06/22 11:15:23;;;;;;;4.80;2.33;;;;;;;24.72;63.46;101343.03;10297500;28;20055;-81
2022/06/22 11:20:40;;;;;;;5.45;2.90;;;;;;;24.65;60.88;101331.47;10251848;28;20043;-80
2022/06/22 11:31:39;;;;;;;6.88;3.45;;;;;;;24.81;60.06;101283.03;10295565;28;20039;-81
2022/06/22 11:37:02;;;;;;;10.57;3.08;;;;;;;24.91;61.14;101305.16;10295840;28;20376;-81
2022/06/22 11:42:12;;;;;;;10.70;3.28;;;;;;;25.06;61.74;101321.44;10295188;28;20127;-81
2022/06/22 11:47:43;;;;;;;4.60;2.95;;;;;;;25.40;59.71;101296.19;10295762;28;20054;-81
2022/06/22 11:52:51;;;;;;;6.40;2.80;;;;;;;26.25;58.98;101304.13;10263715;28;20107;-81
2022/06/22 11:58:10;;;;;;;7.72;2.72;;;;;;;27.07;58.22;101307.97;10278918;28;20042;-81
2022/06/22 12:03:18;;;;;;;8.23;2.92;;;;;;;27.45;56.25;101296.22;10277160;28;20057;-81
2022/06/22 12:08:50;;;;;;;8.68;3.20;;;;;;;27.46;52.19;101252.63;10296631;28;20042;-82
2022/06/22 12:19:44;;;;;;;7.00;3.17;;;;;;;28.49;51.18;101255.72;10294482;28;20094;-81
2022/06/22 12:25:03;;;;;;;7.50;2.35;;;;;;;28.59;48.73;101243.84;10264678;28;20054;-82
2022/06/22 12:30:17;;;;;;;5.65;2.50;;;;;;;28.65;49.54;101250.88;10272387;28;20065;-82
2022/06/22 12:35:52;;;;;;;9.00;2.35;;;;;;;29.21;49.34;101244.03;10239677;28;20058;-81
2022/06/22 12:41:01;;;;;;;6.78;2.70;;;;;;;29.48;46.67;101235.66;10253859;28;20059;-81
2022/06/22 12:46:43;;;;;;;6.30;2.50;;;;;;;29.54;45.09;101217.94;10269020;28;20114;-81
2022/06/22 12:52:08;;;;;;;5.63;2.00;;;;;;;29.94;46.95;101230.84;10292070;28;20830;-83
2022/06/22 12:57:09;;;;;;;7.43;2.42;;;;;;;30.16;45.74;101232.06;10258344;28;20288;-83
2022/06/22 13:02:13;;;;;;;7.05;2.30;;;;;;;29.80;44.26;101207.09;10276190;28;20487;-83
2022/06/22 13:07:15;;;;;;;4.97;2.70;;;;;;;29.53;44.59;101213.47;10275793;28;20066;-82
2022/06/22 13:12:21;;;;;;;4.70;2.50;;;;;;;29.72;43.14;101208.97;10275094;28;20043;-83
2022/06/22 13:17:28;;;;;;;7.60;2.42;;;;;;;29.67;44.17;101206.44;10275944;28;20039;-83
2022/06/22 13:22:37;;;;;;;5.82;2.85;;;;;;;29.37;44.57;101195.72;10259184;28;20052;-83
2022/06/22 13:27:59;;;;;;;9.55;2.10;;;;;;;29.44;46.81;101227.06;10276443;28;20043;-82
2022/06/22 13:33:12;;;;;;;7.32;2.63;;;;;;;29.48;44.24;101218.66;10261980;28;20130;-83
2022/06/22 13:38:17;;;;;;;5.47;2.40;;;;;;;29.52;45.17;101219.53;10270073;28;20117;-83
2022/06/22 13:43:33;;;;;;;;;;;;;;;29.57;43.15;101205.84;10255401;28;20047;-83
2022/06/22 13:49:06;;;;;;;9.27;2.60;;;;;;;29.64;43.72;101210.00;10278594;28;19922;-83
2022/06/22 13:54:34;;;;;;;9.27;2.38;;;;;;;29.95;44.77;101209.81;10276610;28;20058;-83
2022/06/22 13:59:51;;;;;;;5.82;2.05;;;;;;;30.35;44.51;101205.59;10234548;28;20043;-84
2022/06/22 14:04:56;;;;;;;6.57;2.55;;;;;;;29.82;44.54;101201.84;10269912;28;20062;-84
2022/06/22 14:10:05;;;;;;;8.85;2.40;;;;;;;29.78;46.54;101222.47;10223565;28;20070;-83
2022/06/22 14:15:26;;;;;;;6.88;2.33;;;;;;;29.61;46.10;101200.22;10265868;28;20042;-84
2022/06/22 14:20:28;;;;;;;8.02;3.15;;;;;;;29.74;46.61;101203.72;10289802;28;20095;-83
2022/06/22 14:25:48;;;;;;;4.95;2.42;;;;;;;29.59;48.37;101228.16;10276324;28;20039;-82
2022/06/22 14:30:53;;;;;;;7.25;2.83;;;;;;;29.76;49.01;101224.03;10275694;28;20147;-82
2022/06/22 14:36:28;;;;;;;12.23;3.67;;;;;;;29.64;48.77;101230.69;10280907;28;20041;-85
2022/06/22 14:41:38;;;;;;;6.43;2.92;;;;;;;29.45;48.83;101240.03;10261203;28;20039;-85
2022/06/22 14:47:05;;;;;;;6.20;2.97;;;;;;;29.04;51.41;101239.56;10229657;28;20050;-84
2022/06/22 14:52:38;;;;;;;7.88;3.10;;;;;;;28.38;51.28;101215.78;10250350;28;20385;-84
2022/06/22 14:57:50;;;;;;;9.02;2.67;;;;;;;28.77;51.72;101233.75;10279740;28;20031;-84
2022/06/22 15:03:03;;;;;;;6.35;2.58;;;;;;;28.98;51.88;101227.72;10264480;28;20038;-83
2022/06/22 15:08:15;;;;;;;6.18;2.70;;;;;;;29.28;52.29;101232.81;10247739;28;20031;-84
2022/06/22 15:13:44;;;;;;;8.90;2.90;;;;;;;29.80;50.33;101224.13;10296124;28;20074;-83
2022/06/22 15:18:53;;;;;;;6.78;2.97;;;;;;;30.12;50.78;101207.66;10266642;28;20057;-84
2022/06/22 15:24:04;;;;;;;7.32;3.13;;;;;;;29.22;52.64;101210.81;10266093;28;20047;-84
2022/06/22 15:29:05;;;;;;;6.00;2.60;;;;;;;29.52;53.08;101226.00;10263925;28;20489;-86
2022/06/22 15:34:15;;;;;;;7.72;3.17;;;;;;;28.95;53.52;101225.63;10275401;28;20122;-84
2022/06/22 15:39:48;;;;;;;6.35;3.95;;;;;;;28.45;53.37;101224.47;10245823;28;20909;-85
2022/06/22 15:44:53;;;;;;;6.65;2.95;;;;;;;28.68;53.67;101233.13;10254850;28;20057;-83
2022/06/22 15:49:53;;;;;;;7.50;3.17;;;;;;;29.16;52.85;101230.16;10264214;28;20118;-83
2022/06/22 15:55:01;;;;;;;7.90;3.43;;;;;;;29.35;51.65;101209.47;10270470;28;20290;-84
2022/06/22 16:00:19;;;;;;;10.35;2.63;;;;;;;29.32;52.39;101218.72;10264710;28;20324;-84
2022/06/22 16:05:25;;;;;;;5.65;2.70;;;;;;;29.21;52.15;101215.69;10284555;28;20043;-83
2022/06/22 16:10:30;;;;;;;6.72;2.10;;;;;;;29.59;52.06;101225.31;10271865;28;20530;-85
2022/06/22 16:15:41;;;;;;;7.25;2.50;;;;;;;29.57;52.18;101213.53;10255661;28;20416;-86
2022/06/22 16:20:46;;;;;;;6.97;2.85;;;;;;;29.41;51.87;101195.81;10261154;28;20474;-87
2022/06/22 16:25:49;;;;;;;7.45;3.20;;;;;;;28.32;53.97;101232.28;10278147;28;20050;-88
2022/06/22 16:30:57;;;;;;;10.07;2.53;;;;;;;27.10;55.50;101240.25;10294121;28;20125;-85
2022/06/22 16:36:09;;;;;;;6.95;2.20;;;;;;;26.02;58.38;101258.56;10257647;28;20043;-86
2022/06/22 16:41:51;;;;;;;6.03;2.50;;;;;;;24.91;61.35;101249.66;10270239;28;20479;-85
2022/06/22 16:46:56;;;;;;;7.30;2.63;;;;;;;24.22;63.97;101266.91;10204750;28;20066;-85
2022/06/22 16:52:03;;;;;;;9.70;4.03;;;;;;;23.95;66.03;101275.44;10266828;28;20548;-84
2022/06/22 16:57:07;;;;;;;6.88;2.85;;;;;;;23.43;67.31;101264.28;10246887;28;20054;-84
2022/06/22 17:02:43;;;;;;;5.63;2.50;;;;;;;23.46;69.50;101268.41;10245513;28;20035;-84
2022/06/22 17:08:01;;;;;;;7.90;2.55;;;;;;;23.04;69.17;101280.16;10271952;28;20050;-84
2022/06/22 17:13:07;;;;;;;7.28;1.70;;;;;;;22.68;72.51;101289.66;10260373;28;20046;-84
2022/06/22 17:18:30;;;;;;;5.93;1.90;;;;;;;22.19;76.22;101266.38;10264047;28;20073;-84
2022/06/22 17:23:34;;;;;;;6.15;1.98;;;;;;;22.10;77.49;101282.34;10231840;28;20350;-84
2022/06/22 17:28:42;;;;;;;6.75;2.00;;;;;;;21.92;79.49;101285.03;10241486;28;20102;-83
2022/06/22 17:34:03;;;;;;;4.75;1.90;;;;;;;21.49;82.21;101265.97;10261928;28;20042;-84
2022/06/22 17:39:28;;;;;;;3.10;1.75;;;;;;;21.55;83.33;101300.28;10255878;28;20509;-85
2022/06/22 17:44:42;;;;;;;6.07;2.15;;;;;;;21.13;85.49;101291.22;10285564;28;20098;-85
2022/06/22 17:49:44;;;;;;;5.90;2.47;;;;;;;21.03;88.06;101309.06;10271622;28;20081;-84
2022/06/22 17:54:47;;;;;;;6.78;1.70;;;;;;;20.86;91.15;101320.09;10261485;28;20039;-83
2022/06/22 18:00:09;;;;;;;7.30;2.40;;;;;;;20.64;95.91;101330.03;10248532;28;20047;-83
2022/06/22 18:05:31;;;;;;;8.52;2.28;;;;;;;20.33;97.79;101336.22;10281502;28;20043;-83
2022/06/22 18:10:32;;;;;;;7.10;2.13;;;;;;;19.86;98.93;101310.25;10271249;28;20407;-84
2022/06/22 18:15:41;;;;;;;4.10;2.35;;;;;;;19.50;100.00;101308.03;10249293;28;20047;-84
2022/06/22 18:20:47;;;;;;;6.63;1.83;;;;;;;19.62;100.00;101346.69;10224038;28;20443;-85
2022/06/22 18:25:56;;;;;;;9.05;2.00;;;;;;;19.47;100.00;101308.66;10251053;28;20042;-84
2022/06/22 18:31:07;;;;;;;7.30;2.00;;;;;;;19.55;100.00;101333.09;10274016;28;20042;-83
2022/06/22 18:36:28;;;;;;;6.78;2.20;;;;;;;19.37;100.00;101308.81;10252725;28;20039;-85
2022/06/22 18:42:12;;;;;;;4.63;1.88;;;;;;;19.23;100.00;101338.63;10258600;28;20098;-84
2022/06/22 18:47:24;;;;;;;6.97;3.08;;;;;;;18.56;100.00;101289.25;10234649;28;20036;-85
2022/06/22 18:52:37;;;;;;;6.63;2.45;;;;;;;18.78;100.00;101341.72;10250903;28;20047;-83
2022/06/22 18:57:38;;;;;;;7.53;1.92;;;;;;;18.64;100.00;101330.44;10244034;28;20040;-82
2022/06/22 19:02:55;;;;;;;4.40;1.73;;;;;;;18.45;100.00;101315.63;10229631;28;20038;-83
2022/06/22 19:08:01;;;;;;;3.67;2.00;;;;;;;18.30;100.00;101341.72;10245096;28;20035;-84
2022/06/22 19:13:04;;;;;;;6.03;1.80;;;;;;;18.14;100.00;101324.31;10270322;28;20045;-82
2022/06/22 19:18:39;;;;;;;4.18;2.08;;;;;;;18.10;100.00;101349.16;10252049;28;20041;-82
2022/06/22 19:24:17;;;;;;;5.93;2.25;;;;;;;17.95;100.00;101335.38;10270323;28;20039;-82
2022/06/22 19:29:33;;;;;;;3.25;1.73;;;;;;;17.83;100.00;101344.09;10246165;28;20111;-83
2022/06/22 19:35:07;;;;;;;3.00;1.65;;;;;;;17.66;100.00;101343.69;10295705;28;20063;-83
2022/06/22 19:40:10;;;;;;;4.78;1.98;;;;;;;17.54;100.00;101355.19;10294358;28;20073;-83
2022/06/22 19:45:34;;;;;;;3.63;1.52;;;;;;;17.18;100.00;101326.75;10280928;28;20042;-86
2022/06/22 19:50:56;;;;;;;5.32;2.00;;;;;;;17.21;100.00;101354.00;10287784;28;20050;-84
2022/06/22 19:56:17;;;;;;;4.82;2.10;;;;;;;17.10;100.00;101365.19;10256597;28;20054;-86
2022/06/22 20:01:18;;;;;;;4.95;2.35;;;;;;;16.89;100.00;101358.91;10277340;28;20062;-83
2022/06/22 20:06:22;;;;;;;4.55;2.20;;;;;;;16.79;100.00;101367.25;10263917;28;20038;-83
2022/06/22 20:11:27;;;;;;;3.83;2.50;;;;;;;16.64;100.00;101357.03;10253501;28;20047;-83
2022/06/22 20:16:31;;;;;;;6.28;3.05;;;;;;;16.62;100.00;101398.19;10256051;28;20035;-84
2022/06/22 20:21:42;;;;;;;5.40;2.67;;;;;;;16.44;100.00;101396.00;10260844;28;20510;-84
2022/06/22 20:26:55;;;;;;;3.58;2.13;;;;;;;16.40;100.00;101403.22;10267742;28;20061;-83
2022/06/22 20:32:33;;;;;;;4.65;2.03;;;;;;;16.24;100.00;101400.47;10266258;28;20046;-84
2022/06/22 20:37:35;;;;;;;6.78;2.75;;;;;;;16.04;100.00;101386.59;10274742;28;20047;-84
2022/06/22 20:42:38;;;;;;;4.55;1.80;;;;;;;16.04;100.00;101394.91;10241977;28;20043;-84
2022/06/22 20:48:03;;;;;;;8.23;2.72;;;;;;;15.79;100.00;101379.94;10291742;28;20043;-84
2022/06/22 20:53:16;;;;;;;8.15;2.35;;;;;;;15.76;100.00;101394.38;10260796;28;20055;-84
2022/06/22 20:58:37;;;;;;;6.25;3.38;;;;;;;15.70;100.00;101407.38;10282054;28;20041;-84
2022/06/22 21:04:00;;;;;;;4.10;2.60;;;;;;;15.55;100.00;101399.03;10276794;28;20030;-84
2022/06/22 21:09:11;;;;;;;3.42;2.60;;;;;;;15.42;100.00;101407.88;10289523;28;20058;-83
2022/06/22 21:14:32;;;;;;;4.97;3.30;;;;;;;15.42;100.00;101414.28;10255726;28;20058;-83
2022/06/22 21:20:06;;;;;;;4.18;2.92;;;;;;;15.08;100.00;101386.97;10283363;28;20040;-84
2022/06/22 21:25:16;;;;;;;3.15;2.35;;;;;;;15.18;100.00;101404.78;10284718;28;20027;-84
2022/06/22 21:30:20;;;;;;;3.55;2.75;;;;;;;15.16;100.00;101407.00;10294707;28;20042;-84
2022/06/22 21:35:42;;;;;;;5.10;2.78;;;;;;;15.07;100.00;101409.47;10262049;28;20046;-85
2022/06/22 21:40:48;;;;;;;4.13;2.88;;;;;;;15.00;100.00;101406.91;10290693;28;20038;-84
2022/06/22 21:45:52;;;;;;;3.50;2.38;;;;;;;14.90;100.00;101402.19;10283209;28;20088;-83
2022/06/22 21:51:02;;;;;;;4.38;2.28;;;;;;;14.90;100.00;101404.97;10267139;28;20055;-84
2022/06/22 21:57:00;;;;;;;3.15;2.00;;;;;;;14.65;100.00;101380.69;10285371;28;20406;-83
2022/06/22 22:02:22;;;;;;;4.93;2.72;;;;;;;14.78;100.00;101414.56;10243304;28;20098;-84
2022/06/22 22:07:48;;;;;;;3.13;2.83;;;;;;;14.75;100.00;101415.94;10280473;28;20074;-84
2022/06/22 22:12:50;;;;;;;3.70;3.10;;;;;;;14.52;100.00;101383.94;10257823;28;20090;-84
2022/06/22 22:17:53;;;;;;;3.63;3.00;;;;;;;14.54;100.00;101398.34;10290729;28;20039;-85
2022/06/22 22:22:55;;;;;;;4.45;3.20;;;;;;;14.47;100.00;101411.59;10257672;28;20109;-84
2022/06/22 22:27:59;;;;;;;5.35;3.33;;;;;;;14.37;100.00;101411.56;10255601;28;21027;-84
2022/06/22 22:33:00;;;;;;;5.97;3.92;;;;;;;14.13;100.00;101398.06;10241858;28;20558;-85
2022/06/22 22:38:01;;;;;;;6.45;4.57;;;;;;;13.81;100.00;101354.66;10249955;28;20036;-83
2022/06/22 22:43:03;;;;;;;5.03;4.00;;;;;;;14.06;100.00;101394.72;10276828;28;20035;-84
2022/06/22 22:48:05;;;;;;;6.72;4.57;;;;;;;13.87;100.00;101386.81;10261627;28;20039;-84
2022/06/22 22:53:20;;;;;;;6.72;4.97;;;;;;;13.78;100.00;101388.38;10314285;28;20574;-83
2022/06/22 22:58:26;;;;;;;9.23;5.20;;;;;;;13.83;100.00;101410.56;10268446;28;20033;-84
2022/06/22 23:03:41;;;;;;;6.93;5.00;;;;;;;13.78;100.00;101421.59;10281736;28;20042;-84
2022/06/22 23:08:44;;;;;;;10.00;5.45;;;;;;;13.57;100.00;101397.59;10238543;28;20031;-84
2022/06/22 23:13:52;;;;;;;6.47;5.00;;;;;;;13.59;100.00;101425.84;10265326;28;20090;-84
2022/06/22 23:18:54;;;;;;;7.88;5.78;;;;;;;13.58;100.00;101432.44;10297448;28;20094;-84
2022/06/22 23:23:55;;;;;;;8.27;5.65;;;;;;;13.42;100.00;101415.72;10281493;28;20046;-83
2022/06/22 23:28:55;;;;;;;8.45;5.95;;;;;;;13.35;100.00;101409.53;10281498;28;20059;-84
2022/06/22 23:33:57;;;;;;;8.63;5.10;;;;;;;13.42;100.00;101432.31;10264953;28;20039;-85
2022/06/22 23:39:16;;;;;;;11.10;6.82;;;;;;;13.33;100.00;101433.84;10261935;28;20042;-84
2022/06/22 23:44:18;;;;;;;9.77;5.63;;;;;;;13.31;100.00;101447.09;10262030;28;20078;-84
2022/06/22 23:49:18;;;;;;;10.02;6.47;;;;;;;13.19;100.00;101427.88;10260374;28;20058;-83
2022/06/22 23:54:20;;;;;;;8.85;6.13;;;;;;;13.09;100.00;101428.56;10264453;28;20046;-84
2022/06/22 23:59:31;;;;;;;10.52;6.88;;;;;;;13.04;100.00;101414.69;10263507;28;20058;-83
